createdAt,value
2018-12-07T00:01:34.201Z,1.13
2018-12-07T00:04:02.450Z,1.50
2018-12-07T00:06:30.800Z,1.07
2018-12-07T00:08:59.076Z,1.27
2018-12-07T00:11:27.333Z,1.17
2018-12-07T00:13:55.598Z,1.07
2018-12-07T00:16:23.981Z,1.30
2018-12-07T00:18:52.345Z,1.37
2018-12-07T00:21:20.690Z,1.10
2018-12-07T00:23:48.947Z,1.20
2018-12-07T00:26:17.205Z,1.10
2018-12-07T00:28:45.598Z,1.30
2018-12-07T00:31:13.876Z,1.03
2018-12-07T00:33:42.150Z,1.10
2018-12-07T00:36:10.446Z,1.10
2018-12-07T00:38:38.707Z,1.40
2018-12-07T00:41:06.974Z,0.90
2018-12-07T00:43:35.204Z,1.20
2018-12-07T00:46:03.523Z,1.13
2018-12-07T00:48:31.744Z,1.20
2018-12-07T00:51:00.073Z,1.30
2018-12-07T00:53:28.405Z,1.30
2018-12-07T00:55:56.714Z,1.10
2018-12-07T00:58:24.963Z,1.10
2018-12-07T01:00:53.234Z,1.30
2018-12-07T01:03:21.566Z,1.13
2018-12-07T01:05:49.822Z,1.00
2018-12-07T01:08:18.208Z,1.00
2018-12-07T01:10:46.467Z,0.97
2018-12-07T01:13:14.704Z,0.90
2018-12-07T01:15:43.013Z,0.90
2018-12-07T01:18:11.292Z,1.00
2018-12-07T01:20:39.508Z,0.80
2018-12-07T01:23:07.771Z,0.77
2018-12-07T01:25:36.047Z,1.00
2018-12-07T01:28:04.412Z,0.97
2018-12-07T01:30:32.632Z,0.90
2018-12-07T01:33:00.935Z,0.80
2018-12-07T01:35:29.216Z,0.70
2018-12-07T01:37:57.552Z,0.80
2018-12-07T01:40:25.763Z,0.87
2018-12-07T01:42:54.051Z,0.90
2018-12-07T01:45:22.326Z,0.70
2018-12-07T01:47:50.596Z,0.90
2018-12-07T01:50:18.877Z,0.70
2018-12-07T01:52:47.153Z,0.80
2018-12-07T01:55:15.429Z,0.80
2018-12-07T01:57:43.682Z,0.80
2018-12-07T02:00:12.003Z,0.73
2018-12-07T02:02:40.265Z,0.70
2018-12-07T02:05:08.543Z,0.80
2018-12-07T02:07:36.804Z,0.70
2018-12-07T02:10:05.953Z,0.80
2018-12-07T02:12:34.387Z,0.87
2018-12-07T02:15:02.730Z,0.73
2018-12-07T02:17:30.993Z,0.80
2018-12-07T02:19:59.234Z,0.80
2018-12-07T02:22:27.570Z,0.70
2018-12-07T02:24:55.897Z,0.70
2018-12-07T02:27:24.148Z,0.90
2018-12-07T02:29:52.387Z,0.60
2018-12-07T02:32:20.660Z,0.60
2018-12-07T02:34:48.898Z,0.60
2018-12-07T02:37:17.172Z,0.63
2018-12-07T02:39:45.535Z,0.63
2018-12-07T02:42:13.863Z,0.80
2018-12-07T02:44:42.097Z,0.73
2018-12-07T02:47:10.454Z,0.80
2018-12-07T02:49:38.686Z,0.80
2018-12-07T02:52:06.935Z,0.63
2018-12-07T02:54:35.213Z,0.70
2018-12-07T02:57:03.543Z,0.77
2018-12-07T02:59:31.888Z,0.50
2018-12-07T03:02:00.188Z,0.90
2018-12-07T03:04:28.624Z,0.70
2018-12-07T03:06:56.845Z,0.77
2018-12-07T03:09:25.098Z,0.70
2018-12-07T03:11:53.443Z,0.60
2018-12-07T03:14:21.776Z,0.60
2018-12-07T03:16:50.040Z,0.50
2018-12-07T03:19:18.303Z,0.80
2018-12-07T03:21:46.670Z,0.57
2018-12-07T03:24:14.938Z,0.70
2018-12-07T03:26:43.191Z,0.50
2018-12-07T03:29:11.523Z,0.60
2018-12-07T03:31:39.813Z,0.50
2018-12-07T03:34:08.223Z,0.60
2018-12-07T03:36:36.612Z,0.80
2018-12-07T03:39:06.821Z,0.40
2018-12-07T03:41:35.195Z,0.50
2018-12-07T03:44:03.472Z,0.50
2018-12-07T03:46:31.776Z,0.40
2018-12-07T03:49:00.153Z,0.53
2018-12-07T03:51:28.448Z,0.50
2018-12-07T03:53:56.757Z,0.60
2018-12-07T03:56:25.008Z,0.50
2018-12-07T03:58:53.259Z,0.60
2018-12-07T04:01:21.497Z,0.67
2018-12-07T04:03:49.930Z,0.50
2018-12-07T04:06:18.312Z,0.60
2018-12-07T04:08:46.535Z,0.50
2018-12-07T04:11:14.967Z,0.60
2018-12-07T04:13:43.192Z,0.50
2018-12-07T04:16:11.419Z,0.50
2018-12-07T04:18:39.643Z,0.50
2018-12-07T04:21:07.907Z,0.40
2018-12-07T04:23:36.324Z,0.53
2018-12-07T04:26:04.785Z,0.40
2018-12-07T04:28:33.056Z,0.50
2018-12-07T04:31:01.330Z,0.50
2018-12-07T04:33:29.836Z,0.60
2018-12-07T04:35:58.065Z,0.40
2018-12-07T04:38:26.468Z,0.50
2018-12-07T04:40:54.760Z,0.70
2018-12-07T04:43:23.019Z,0.50
2018-12-07T04:45:51.247Z,0.60
2018-12-07T04:48:19.561Z,0.50
2018-12-07T04:50:47.795Z,0.60
2018-12-07T04:53:16.052Z,0.60
2018-12-07T04:55:44.268Z,0.60
2018-12-07T04:58:12.701Z,0.53
2018-12-07T05:00:41.046Z,0.60
2018-12-07T05:03:09.432Z,0.60
2018-12-07T05:05:38.020Z,0.60
2018-12-07T05:08:06.399Z,0.50
2018-12-07T05:10:34.779Z,0.47
2018-12-07T05:13:03.319Z,1.00
2018-12-07T05:15:31.621Z,0.60
2018-12-07T05:17:59.932Z,0.60
2018-12-07T05:20:28.161Z,0.40
2018-12-07T05:22:56.489Z,0.60
2018-12-07T05:25:24.725Z,0.40
2018-12-07T05:27:53.071Z,0.60
2018-12-07T05:30:21.414Z,0.60
2018-12-07T05:32:49.719Z,0.50
2018-12-07T05:35:17.992Z,0.50
2018-12-07T05:37:46.332Z,0.60
2018-12-07T05:40:14.631Z,0.60
2018-12-07T05:42:42.976Z,0.73
2018-12-07T05:45:11.262Z,0.73
2018-12-07T05:47:39.552Z,0.50
2018-12-07T05:50:09.106Z,0.50
2018-12-07T05:52:37.416Z,0.50
2018-12-07T05:55:06.206Z,0.60
2018-12-07T05:57:34.523Z,0.50
2018-12-07T06:00:03.373Z,0.50
2018-12-07T06:02:31.704Z,0.53
2018-12-07T06:04:59.916Z,0.50
2018-12-07T06:07:28.248Z,0.40
2018-12-07T06:09:56.584Z,0.60
2018-12-07T06:12:24.947Z,0.50
2018-12-07T06:14:53.228Z,0.60
2018-12-07T06:17:21.497Z,0.50
2018-12-07T06:19:49.824Z,0.50
2018-12-07T06:22:18.091Z,0.50
2018-12-07T06:24:46.356Z,0.50
2018-12-07T06:27:14.579Z,0.53
2018-12-07T06:29:42.884Z,0.60
2018-12-07T06:32:11.147Z,0.53
2018-12-07T06:34:39.425Z,0.67
2018-12-07T06:37:07.733Z,0.60
2018-12-07T06:39:35.993Z,0.80
2018-12-07T06:42:04.360Z,1.73
2018-12-07T06:44:32.652Z,1.70
2018-12-07T06:47:00.915Z,0.90
2018-12-07T06:49:29.220Z,0.70
2018-12-07T06:51:57.498Z,0.60
2018-12-07T06:54:25.821Z,0.60
2018-12-07T06:56:54.120Z,0.80
2018-12-07T06:59:22.416Z,0.70
2018-12-07T07:01:50.631Z,0.70
2018-12-07T07:04:18.892Z,0.80
2018-12-07T07:06:47.131Z,0.67
2018-12-07T07:09:15.351Z,0.63
2018-12-07T07:11:43.588Z,0.70
2018-12-07T07:14:11.812Z,0.53
2018-12-07T07:16:40.146Z,0.60
2018-12-07T07:19:08.376Z,0.60
2018-12-07T07:21:36.698Z,0.60
2018-12-07T07:24:05.059Z,0.70
2018-12-07T07:26:33.294Z,0.70
2018-12-07T07:29:01.504Z,0.73
2018-12-07T07:31:29.800Z,0.77
2018-12-07T07:33:58.073Z,0.73
2018-12-07T07:36:26.372Z,0.80
2018-12-07T07:38:54.715Z,0.70
2018-12-07T07:41:23.040Z,0.90
2018-12-07T07:43:51.385Z,0.90
2018-12-07T07:46:19.643Z,1.00
2018-12-07T07:48:47.912Z,0.93
2018-12-07T07:51:16.211Z,0.80
2018-12-07T07:53:44.467Z,1.00
2018-12-07T07:56:15.523Z,0.57
2018-12-07T07:58:43.000Z,0.80
2018-12-07T08:01:11.231Z,0.77
2018-12-07T08:03:39.752Z,1.00
2018-12-07T08:06:08.020Z,1.30
2018-12-07T08:08:36.356Z,1.00
2018-12-07T08:11:04.638Z,1.00
2018-12-07T08:13:32.931Z,1.00
2018-12-07T08:16:01.188Z,0.93
2018-12-07T08:18:29.487Z,0.70
2018-12-07T08:20:57.705Z,0.80
2018-12-07T08:23:25.988Z,0.80
2018-12-07T08:25:54.368Z,0.60
2018-12-07T08:28:22.782Z,0.77
2018-12-07T08:30:51.040Z,0.70
2018-12-07T08:33:19.370Z,1.40
2018-12-07T08:35:47.647Z,0.70
2018-12-07T08:38:15.916Z,0.70
2018-12-07T08:40:44.179Z,0.70
2018-12-07T08:43:12.475Z,0.70
2018-12-07T08:45:40.844Z,0.60
2018-12-07T08:48:09.114Z,0.87
2018-12-07T08:50:37.443Z,0.80
2018-12-07T08:53:05.659Z,0.80
2018-12-07T08:55:33.975Z,0.87
2018-12-07T08:58:02.231Z,0.80
2018-12-07T09:00:30.523Z,0.70
2018-12-07T09:02:58.731Z,0.60
2018-12-07T09:05:26.975Z,0.60
2018-12-07T09:07:55.217Z,0.60
2018-12-07T09:10:23.473Z,0.80
2018-12-07T09:12:51.699Z,0.80
2018-12-07T09:15:20.104Z,0.70
2018-12-07T09:18:00.896Z,1.90
2018-12-07T09:20:29.300Z,1.10
2018-12-07T09:22:57.577Z,0.83
2018-12-07T09:25:25.884Z,0.63
2018-12-07T09:27:54.185Z,0.80
2018-12-07T09:30:22.655Z,0.87
2018-12-07T09:32:50.927Z,2.27
2018-12-07T09:35:19.216Z,2.60
2018-12-07T09:37:47.502Z,3.87
2018-12-07T09:40:15.978Z,1.70
2018-12-07T09:42:44.320Z,3.27
2018-12-07T09:45:12.633Z,2.13
2018-12-07T09:47:40.939Z,1.20
2018-12-07T09:50:09.298Z,1.80
2018-12-07T09:52:37.610Z,1.30
2018-12-07T09:55:06.010Z,1.63
2018-12-07T09:57:34.284Z,1.70
2018-12-07T10:00:02.586Z,1.20
2018-12-07T10:02:30.877Z,1.30
2018-12-07T10:04:59.169Z,0.90
2018-12-07T10:07:27.513Z,0.90
2018-12-07T10:09:55.805Z,0.60
2018-12-07T10:12:24.141Z,0.80
2018-12-07T10:14:52.496Z,0.90
2018-12-07T10:17:20.928Z,1.20
2018-12-07T10:19:49.197Z,0.90
2018-12-07T10:22:17.472Z,0.63
2018-12-07T10:24:45.753Z,0.70
2018-12-07T10:27:14.036Z,0.80
2018-12-07T10:29:42.305Z,0.80
2018-12-07T10:32:10.581Z,0.60
2018-12-07T10:34:38.869Z,0.70
2018-12-07T10:37:07.148Z,0.70
2018-12-07T10:39:35.529Z,0.70
2018-12-07T10:42:03.816Z,0.90
2018-12-07T10:44:32.180Z,0.90
2018-12-07T10:47:00.538Z,0.60
2018-12-07T10:49:30.460Z,0.50
2018-12-07T10:51:58.969Z,0.50
2018-12-07T10:54:27.331Z,0.80
2018-12-07T10:56:55.597Z,0.70
2018-12-07T10:59:23.869Z,0.97
2018-12-07T11:01:57.587Z,0.70
2018-12-07T11:04:31.203Z,0.90
2018-12-07T11:07:04.869Z,0.97
2018-12-07T11:09:38.617Z,0.80
2018-12-07T11:12:12.499Z,1.00
2018-12-07T11:14:46.164Z,0.67
2018-12-07T11:23:44.328Z,0.70
2018-12-07T11:26:18.006Z,0.70
2018-12-07T11:28:51.915Z,0.87
2018-12-07T11:31:25.684Z,1.00
2018-12-07T11:33:55.832Z,0.90
2018-12-07T11:36:24.149Z,1.00
2018-12-07T11:38:52.368Z,0.90
2018-12-07T11:41:20.623Z,0.87
2018-12-07T11:43:48.919Z,1.20
2018-12-07T11:46:17.197Z,1.13
2018-12-07T11:48:45.419Z,1.03
2018-12-07T11:51:13.755Z,1.10
2018-12-07T11:53:42.128Z,0.90
2018-12-07T11:56:11.329Z,0.63
2018-12-07T11:58:39.619Z,0.70
2018-12-07T12:01:07.917Z,0.70
2018-12-07T12:03:36.185Z,0.73
2018-12-07T12:06:04.505Z,0.70
2018-12-07T12:08:32.797Z,0.60
2018-12-07T12:11:01.071Z,0.73
2018-12-07T12:13:29.335Z,0.80
2018-12-07T12:15:57.552Z,0.63
2018-12-07T12:18:25.836Z,0.80
2018-12-07T12:20:54.217Z,0.60
2018-12-07T12:23:22.452Z,0.60
2018-12-07T12:25:50.771Z,0.70
2018-12-07T12:28:19.071Z,0.60
2018-12-07T12:30:47.432Z,0.80
2018-12-07T12:33:20.866Z,0.90
2018-12-07T12:35:49.210Z,0.80
2018-12-07T12:38:17.464Z,0.70
2018-12-07T12:40:45.740Z,0.80
2018-12-07T12:43:13.982Z,0.80
2018-12-07T12:45:42.366Z,0.90
2018-12-07T12:48:10.808Z,1.27
2018-12-07T12:50:39.137Z,0.93
2018-12-07T12:53:07.442Z,2.93
2018-12-07T12:55:35.698Z,1.50
2018-12-07T12:58:03.966Z,1.60
2018-12-07T13:00:32.360Z,1.13
2018-12-07T13:03:00.633Z,1.10
2018-12-07T13:05:29.067Z,0.97
2018-12-07T13:07:57.414Z,0.90
2018-12-07T13:10:25.754Z,1.10
2018-12-07T13:12:54.083Z,1.37
2018-12-07T13:15:22.401Z,1.43
2018-12-07T13:17:50.672Z,1.30
2018-12-07T13:20:18.939Z,1.03
2018-12-07T13:22:47.214Z,1.70
2018-12-07T13:25:15.572Z,1.30
2018-12-07T13:27:43.921Z,1.40
2018-12-07T13:30:12.280Z,1.10
2018-12-07T13:32:40.545Z,1.20
2018-12-07T13:35:08.820Z,1.33
2018-12-07T13:37:37.098Z,1.30
2018-12-07T13:40:06.298Z,1.60
2018-12-07T13:42:34.878Z,1.90
2018-12-07T13:45:04.668Z,1.10
2018-12-07T13:47:33.408Z,1.60
2018-12-07T13:50:07.405Z,0.90
2018-12-07T13:52:35.806Z,1.63
2018-12-07T13:55:04.486Z,0.80
2018-12-07T13:57:32.819Z,1.30
2018-12-07T14:00:01.303Z,0.70
2018-12-07T14:02:29.846Z,1.50
2018-12-07T14:04:59.617Z,1.10
2018-12-07T14:07:28.074Z,1.23
2018-12-07T14:09:56.583Z,1.30
2018-12-07T14:12:25.080Z,1.10
2018-12-07T14:14:53.404Z,1.90
2018-12-07T14:17:21.897Z,1.50
2018-12-07T14:19:50.396Z,1.13
2018-12-07T14:22:18.880Z,1.30
2018-12-07T14:24:47.235Z,1.30
2018-12-07T14:27:15.675Z,1.83
2018-12-07T14:29:44.219Z,1.73
2018-12-07T14:32:12.752Z,1.97
2018-12-07T14:34:41.225Z,1.20
2018-12-07T14:37:09.708Z,1.33
2018-12-07T14:39:38.060Z,1.03
2018-12-07T14:42:06.367Z,0.70
2018-12-07T14:44:34.782Z,2.23
2018-12-07T14:47:03.118Z,1.27
2018-12-07T14:49:34.499Z,0.80
2018-12-07T14:52:03.045Z,1.10
2018-12-07T14:54:31.403Z,1.20
2018-12-07T14:56:59.860Z,1.20
2018-12-07T14:59:28.159Z,1.10
2018-12-07T15:01:56.553Z,0.93
2018-12-07T15:04:25.072Z,1.00
2018-12-07T15:06:53.610Z,0.80
2018-12-07T15:09:22.360Z,1.00
2018-12-07T15:11:50.823Z,0.70
2018-12-07T15:14:19.201Z,0.80
2018-12-07T15:16:47.747Z,1.00
2018-12-07T15:19:16.163Z,0.80
2018-12-07T15:21:44.715Z,0.83
2018-12-07T15:24:13.213Z,0.93
2018-12-07T15:26:42.992Z,0.90
2018-12-07T15:29:11.892Z,1.00
2018-12-07T15:31:40.517Z,1.00
2018-12-07T15:34:08.926Z,1.03
2018-12-07T15:36:37.419Z,0.80
2018-12-07T15:39:08.170Z,0.90
2018-12-07T15:41:36.719Z,1.00
2018-12-07T15:44:05.028Z,1.03
2018-12-07T15:46:33.435Z,0.80
2018-12-07T15:49:02.390Z,1.20
2018-12-07T15:51:30.766Z,1.30
2018-12-07T15:53:59.080Z,1.10
2018-12-07T15:56:27.470Z,1.97
2018-12-07T15:58:55.910Z,1.80
2018-12-07T16:01:24.258Z,1.37
2018-12-07T16:03:52.687Z,1.60
2018-12-07T16:06:21.255Z,1.50
2018-12-07T16:08:49.802Z,1.60
2018-12-07T16:11:18.223Z,1.87
2018-12-07T16:13:47.911Z,1.53
2018-12-07T16:16:16.240Z,1.20
2018-12-07T16:18:44.566Z,1.83
2018-12-07T16:21:13.093Z,1.50
2018-12-07T16:23:41.538Z,1.47
2018-12-07T16:26:10.075Z,1.60
2018-12-07T16:28:38.502Z,1.67
2018-12-07T16:31:07.100Z,1.33
2018-12-07T16:33:35.747Z,1.70
2018-12-07T16:36:04.270Z,1.60
2018-12-07T16:38:32.908Z,2.03
2018-12-07T16:41:01.385Z,1.90
2018-12-07T16:43:29.977Z,2.00
2018-12-07T16:45:58.587Z,1.77
2018-12-07T16:48:27.182Z,1.70
2018-12-07T16:50:55.675Z,1.97
2018-12-07T16:53:24.235Z,2.00
2018-12-07T16:55:53.899Z,1.83
2018-12-07T16:58:22.838Z,2.10
2018-12-07T17:00:51.487Z,2.40
2018-12-07T17:03:20.064Z,1.80
2018-12-07T17:05:48.402Z,1.60
2018-12-07T17:08:18.482Z,2.20
2018-12-07T17:10:48.025Z,2.60
2018-12-07T17:13:17.319Z,2.77
2018-12-07T17:15:45.682Z,1.80
2018-12-07T17:18:14.410Z,2.17
2018-12-07T17:20:42.910Z,2.00
2018-12-07T17:23:11.546Z,2.47
2018-12-07T17:25:40.521Z,2.43
2018-12-07T17:28:09.036Z,2.57
2018-12-07T17:30:38.678Z,2.87
2018-12-07T17:33:07.557Z,2.83
2018-12-07T17:35:35.941Z,2.37
2018-12-07T17:38:04.362Z,2.20
2018-12-07T17:40:32.725Z,2.10
2018-12-07T17:43:01.273Z,2.83
2018-12-07T17:45:29.781Z,2.60
2018-12-07T17:47:58.481Z,2.37
2018-12-07T17:50:31.357Z,2.53
2018-12-07T17:52:59.715Z,2.50
2018-12-07T17:55:28.191Z,2.47
2018-12-07T17:57:56.726Z,2.40
2018-12-07T18:00:25.176Z,2.10
2018-12-07T18:02:53.701Z,2.87
2018-12-07T18:05:22.032Z,2.67
2018-12-07T18:07:50.543Z,2.00
2018-12-07T18:10:19.903Z,2.10
2018-12-07T18:12:48.461Z,2.00
2018-12-07T18:15:16.899Z,2.60
2018-12-07T18:17:45.341Z,2.70
2018-12-07T18:20:13.815Z,2.77
2018-12-07T18:22:42.236Z,2.70
2018-12-07T18:25:10.655Z,2.30
2018-12-07T18:27:39.338Z,2.30
2018-12-07T18:30:07.970Z,2.20
2018-12-07T18:32:36.272Z,2.30
2018-12-07T18:35:05.304Z,2.20
2018-12-07T18:37:33.930Z,2.33
2018-12-07T18:40:02.413Z,2.60
2018-12-07T18:42:30.823Z,2.60
2018-12-07T18:44:59.102Z,2.57
2018-12-07T18:47:27.512Z,2.70
2018-12-07T18:49:57.766Z,2.70
2018-12-07T18:52:26.412Z,2.60
2018-12-07T18:54:54.910Z,2.67
2018-12-07T18:57:23.440Z,2.97
2018-12-07T18:59:51.866Z,2.90
2018-12-07T19:02:20.845Z,3.20
2018-12-07T19:04:50.638Z,3.00
2018-12-07T19:07:19.750Z,3.30
2018-12-07T19:09:48.226Z,3.20
2018-12-07T19:12:16.840Z,3.10
2018-12-07T19:14:45.428Z,3.17
2018-12-07T19:17:13.783Z,3.20
2018-12-07T19:19:42.292Z,3.17
2018-12-07T19:22:10.754Z,3.20
2018-12-07T19:24:39.176Z,3.30
2018-12-07T19:27:07.653Z,3.33
2018-12-07T19:29:36.109Z,3.23
2018-12-07T19:32:04.508Z,3.73
2018-12-07T19:34:32.971Z,3.23
2018-12-07T19:37:01.463Z,3.60
2018-12-07T19:39:30.014Z,3.60
2018-12-07T19:41:58.431Z,3.40
2018-12-07T19:44:26.909Z,3.40
2018-12-07T19:46:55.315Z,3.33
2018-12-07T19:49:24.008Z,3.37
2018-12-07T19:51:52.449Z,3.53
2018-12-07T19:54:21.166Z,3.47
2018-12-07T19:56:49.910Z,3.47
2018-12-07T19:59:18.369Z,3.40
2018-12-07T20:01:46.697Z,3.33
2018-12-07T20:04:15.327Z,4.17
2018-12-07T20:06:43.829Z,3.63
2018-12-07T20:09:12.343Z,3.63
2018-12-07T20:11:40.987Z,3.57
2018-12-07T20:14:09.669Z,3.80
2018-12-07T20:16:38.058Z,3.27
2018-12-07T20:19:06.516Z,3.43
2018-12-07T20:21:35.087Z,3.37
2018-12-07T20:24:03.441Z,3.40
2018-12-07T20:26:31.850Z,3.90
2018-12-07T20:29:00.570Z,3.60
2018-12-07T20:31:29.080Z,3.40
2018-12-07T20:33:57.545Z,2.80
2018-12-07T20:36:26.241Z,2.90
2018-12-07T20:38:54.957Z,2.83
2018-12-07T20:41:23.333Z,2.80
2018-12-07T20:43:53.677Z,2.83
2018-12-07T20:46:22.011Z,2.63
2018-12-07T20:48:50.625Z,3.07
2018-12-07T20:51:19.375Z,3.10
2018-12-07T20:53:47.699Z,2.70
2018-12-07T20:56:15.935Z,3.07
2018-12-07T20:58:44.605Z,2.63
2018-12-07T21:01:13.058Z,2.60
2018-12-07T21:10:55.292Z,1.40
2018-12-07T21:16:59.185Z,1.63
2018-12-07T21:19:27.698Z,1.30
2018-12-07T21:21:56.155Z,1.50
2018-12-07T21:24:24.843Z,1.43
2018-12-07T21:26:53.328Z,1.20
2018-12-07T21:29:21.843Z,1.23
2018-12-07T21:31:52.739Z,1.13
2018-12-07T21:37:42.887Z,1.00
2018-12-07T21:40:13.213Z,1.13
2018-12-07T21:42:41.669Z,0.80
2018-12-07T21:45:10.063Z,0.93
2018-12-07T21:51:05.962Z,0.60
2018-12-07T21:53:34.240Z,0.80
2018-12-07T21:56:02.794Z,0.73
2018-12-07T21:58:31.374Z,0.80
2018-12-07T22:00:59.991Z,0.73
2018-12-07T22:03:28.474Z,0.60
2018-12-07T22:05:57.122Z,0.60
2018-12-07T22:08:25.584Z,0.63
2018-12-07T22:10:54.358Z,0.60
2018-12-07T22:13:22.961Z,0.50
2018-12-07T22:15:51.396Z,0.60
2018-12-07T22:18:20.037Z,0.63
2018-12-07T22:20:48.649Z,0.50
2018-12-07T22:23:17.087Z,0.50
2018-12-07T22:25:45.598Z,0.50
2018-12-07T22:28:14.172Z,0.50
2018-12-07T22:30:42.961Z,0.60
2018-12-07T22:33:11.232Z,0.50
2018-12-07T22:35:40.157Z,0.60
2018-12-07T22:38:08.833Z,0.50
2018-12-07T22:40:37.212Z,0.43
2018-12-07T22:43:05.574Z,0.60
2018-12-07T22:45:33.970Z,0.50
2018-12-07T22:48:02.275Z,0.50
2018-12-07T22:50:30.619Z,0.60
2018-12-07T22:52:58.968Z,0.50
2018-12-07T22:55:27.252Z,0.47
2018-12-07T22:57:55.526Z,0.50
2018-12-07T23:00:23.865Z,0.50
2018-12-07T23:02:52.183Z,0.40
2018-12-07T23:05:20.450Z,0.70
2018-12-07T23:07:48.787Z,2.67
2018-12-07T23:10:17.008Z,0.50
2018-12-07T23:12:45.333Z,0.50
2018-12-07T23:15:13.610Z,0.50
2018-12-07T23:17:41.943Z,0.40
2018-12-07T23:20:10.289Z,0.40
2018-12-07T23:22:38.759Z,0.40
2018-12-07T23:25:07.102Z,0.50
2018-12-07T23:27:35.349Z,0.40
2018-12-07T23:30:05.805Z,0.50
2018-12-07T23:32:36.186Z,0.60
2018-12-07T23:35:05.636Z,0.50
2018-12-07T23:37:33.908Z,5.27
2018-12-07T23:40:02.277Z,0.50
2018-12-07T23:42:30.519Z,0.50
2018-12-07T23:44:58.859Z,0.57
2018-12-07T23:47:27.116Z,0.80
2018-12-07T23:49:55.423Z,0.70
2018-12-07T23:52:23.731Z,0.53
2018-12-07T23:54:52.007Z,0.60
2018-12-07T23:57:20.312Z,0.60
2018-12-07T23:59:48.556Z,0.80
